sensor_id;sensor_type;location;lat;lon;timestamp;pressure;altitude;pressure_sealevel;temperature;humidity
83664;BME280;73634;47.068;15.426;2024-03-02T00:00:20;96732.13;;;7.47;88.29
83664;BME280;73634;47.068;15.426;2024-03-02T00:02:50;96726.53;;;7.35;89.02
83664;BME280;73634;47.068;15.426;2024-03-02T00:05:17;96730.97;;;7.29;89.49
83664;BME280;73634;47.068;15.426;2024-03-02T00:07:45;96734.84;;;7.32;89.51
83664;BME280;73634;47.068;15.426;2024-03-02T00:10:14;96723.69;;;7.36;88.98
83664;BME280;73634;47.068;15.426;2024-03-02T00:15:51;96734.81;;;7.37;89.21
83664;BME280;73634;47.068;15.426;2024-03-02T00:18:23;96729.41;;;7.33;88.90
83664;BME280;73634;47.068;15.426;2024-03-02T00:20:52;96732.53;;;7.30;89.28
83664;BME280;73634;47.068;15.426;2024-03-02T00:23:18;96736.19;;;7.24;89.63
83664;BME280;73634;47.068;15.426;2024-03-02T00:25:48;96735.66;;;7.27;89.96
83664;BME280;73634;47.068;15.426;2024-03-02T00:28:17;96743.38;;;7.32;89.75
83664;BME280;73634;47.068;15.426;2024-03-02T00:33:08;96743.84;;;7.40;88.99
83664;BME280;73634;47.068;15.426;2024-03-02T00:35:35;96744.09;;;7.38;88.99
83664;BME280;73634;47.068;15.426;2024-03-02T00:39:54;96742.25;;;7.44;88.71
83664;BME280;73634;47.068;15.426;2024-03-02T00:42:19;96735.75;;;7.46;88.78
83664;BME280;73634;47.068;15.426;2024-03-02T00:44:44;96734.47;;;7.44;88.45
83664;BME280;73634;47.068;15.426;2024-03-02T00:47:10;96735.81;;;7.41;89.00
83664;BME280;73634;47.068;15.426;2024-03-02T00:49:35;96737.84;;;7.44;88.77
83664;BME280;73634;47.068;15.426;2024-03-02T00:52:01;96729.91;;;7.35;88.76
83664;BME280;73634;47.068;15.426;2024-03-02T00:54:26;96734.56;;;7.33;89.50
83664;BME280;73634;47.068;15.426;2024-03-02T00:56:54;96736.31;;;7.43;88.89
83664;BME280;73634;47.068;15.426;2024-03-02T00:59:22;96736.44;;;7.28;89.28
83664;BME280;73634;47.068;15.426;2024-03-02T01:04:20;96734.38;;;7.25;89.11
83664;BME280;73634;47.068;15.426;2024-03-02T01:06:45;96731.84;;;7.20;89.63
83664;BME280;73634;47.068;15.426;2024-03-02T01:09:11;96738.84;;;7.19;90.08
83664;BME280;73634;47.068;15.426;2024-03-02T01:11:37;96729.06;;;7.16;90.24
83664;BME280;73634;47.068;15.426;2024-03-02T01:14:02;96736.31;;;7.14;90.39
83664;BME280;73634;47.068;15.426;2024-03-02T01:16:29;96728.59;;;7.09;90.43
83664;BME280;73634;47.068;15.426;2024-03-02T01:18:54;96728.03;;;7.12;90.65
83664;BME280;73634;47.068;15.426;2024-03-02T01:21:20;96730.66;;;7.07;90.40
83664;BME280;73634;47.068;15.426;2024-03-02T01:23:45;96737.63;;;7.12;90.50
83664;BME280;73634;47.068;15.426;2024-03-02T01:27:32;96721.03;;;7.18;90.59
83664;BME280;73634;47.068;15.426;2024-03-02T01:29:57;96733.75;;;7.09;90.37
83664;BME280;73634;47.068;15.426;2024-03-02T01:32:25;96736.31;;;7.14;90.50
83664;BME280;73634;47.068;15.426;2024-03-02T01:34:50;96731.28;;;7.23;90.13
83664;BME280;73634;47.068;15.426;2024-03-02T01:37:15;96733.34;;;7.26;89.48
83664;BME280;73634;47.068;15.426;2024-03-02T01:39:40;96733.34;;;7.26;89.45
83664;BME280;73634;47.068;15.426;2024-03-02T01:42:06;96731.28;;;7.23;89.35
83664;BME280;73634;47.068;15.426;2024-03-02T01:44:31;96729.56;;;7.18;89.37
83664;BME280;73634;47.068;15.426;2024-03-02T01:46:57;96726.47;;;7.16;89.37
83664;BME280;73634;47.068;15.426;2024-03-02T01:51:12;96720.38;;;7.31;89.22
83664;BME280;73634;47.068;15.426;2024-03-02T01:53:37;96721.69;;;7.28;88.87
83664;BME280;73634;47.068;15.426;2024-03-02T01:56:03;96718.44;;;7.18;88.18
83664;BME280;73634;47.068;15.426;2024-03-02T01:58:29;96725.97;;;7.14;89.17
83664;BME280;73634;47.068;15.426;2024-03-02T02:00:54;96723.94;;;7.06;89.69
83664;BME280;73634;47.068;15.426;2024-03-02T02:03:19;96723.41;;;7.09;90.16
83664;BME280;73634;47.068;15.426;2024-03-02T02:05:45;96724.97;;;7.10;89.60
83664;BME280;73634;47.068;15.426;2024-03-02T02:08:12;96719.09;;;6.99;88.71
83664;BME280;73634;47.068;15.426;2024-03-02T02:10:38;96724.50;;;7.03;88.61
83664;BME280;73634;47.068;15.426;2024-03-02T02:13:03;96720.91;;;6.99;88.76
83664;BME280;73634;47.068;15.426;2024-03-02T02:17:38;96720.88;;;7.04;87.94
83664;BME280;73634;47.068;15.426;2024-03-02T02:20:04;96715.19;;;7.02;87.28
83664;BME280;73634;47.068;15.426;2024-03-02T02:22:30;96711.59;;;6.98;87.85
83664;BME280;73634;47.068;15.426;2024-03-02T02:24:55;96713.09;;;7.04;86.99
83664;BME280;73634;47.068;15.426;2024-03-02T02:27:21;96706.34;;;7.08;86.74
83664;BME280;73634;47.068;15.426;2024-03-02T02:29:46;96701.63;;;7.15;87.25
83664;BME280;73634;47.068;15.426;2024-03-02T02:32:11;96700.31;;;7.18;86.87
83664;BME280;73634;47.068;15.426;2024-03-02T02:34:37;96703.69;;;7.18;86.49
83664;BME280;73634;47.068;15.426;2024-03-02T02:37:02;96706.19;;;7.23;86.83
83664;BME280;73634;47.068;15.426;2024-03-02T02:42:25;96694.16;;;7.38;86.40
83664;BME280;73634;47.068;15.426;2024-03-02T02:44:51;96690.50;;;7.44;86.07
83664;BME280;73634;47.068;15.426;2024-03-02T02:47:16;96691.97;;;7.50;86.20
83664;BME280;73634;47.068;15.426;2024-03-02T02:49:41;96698.94;;;7.54;85.52
83664;BME280;73634;47.068;15.426;2024-03-02T02:52:07;96698.66;;;7.56;85.38
83664;BME280;73634;47.068;15.426;2024-03-02T02:54:32;96696.06;;;7.56;85.06
83664;BME280;73634;47.068;15.426;2024-03-02T02:56:57;96701.75;;;7.58;85.40
83664;BME280;73634;47.068;15.426;2024-03-02T02:59:24;96696.63;;;7.53;85.04
83664;BME280;73634;47.068;15.426;2024-03-02T03:01:51;96696.22;;;7.41;85.80
83664;BME280;73634;47.068;15.426;2024-03-02T03:06:55;96691.56;;;7.14;86.50
83664;BME280;73634;47.068;15.426;2024-03-02T03:09:21;96689.19;;;7.17;86.67
83664;BME280;73634;47.068;15.426;2024-03-02T03:11:46;96688.34;;;7.22;86.71
83664;BME280;73634;47.068;15.426;2024-03-02T03:14:12;96687.97;;;7.10;87.21
83664;BME280;73634;47.068;15.426;2024-03-02T03:16:37;96682.00;;;7.14;86.86
83664;BME280;73634;47.068;15.426;2024-03-02T03:19:03;96682.75;;;7.15;87.18
83664;BME280;73634;47.068;15.426;2024-03-02T03:21:28;96686.34;;;7.19;87.41
83664;BME280;73634;47.068;15.426;2024-03-02T03:23:53;96688.47;;;7.12;86.75
83664;BME280;73634;47.068;15.426;2024-03-02T03:26:20;96689.13;;;7.22;86.75
83664;BME280;73634;47.068;15.426;2024-03-02T03:31:35;96688.63;;;7.20;86.77
83664;BME280;73634;47.068;15.426;2024-03-02T03:34:00;96688.09;;;7.23;86.46
83664;BME280;73634;47.068;15.426;2024-03-02T03:36:26;96678.78;;;7.22;85.78
83664;BME280;73634;47.068;15.426;2024-03-02T03:38:51;96683.97;;;7.22;85.39
83664;BME280;73634;47.068;15.426;2024-03-02T03:41:16;96685.19;;;7.30;85.65
83664;BME280;73634;47.068;15.426;2024-03-02T03:43:42;96686.19;;;7.34;84.75
83664;BME280;73634;47.068;15.426;2024-03-02T03:46:07;96685.22;;;7.25;85.08
83664;BME280;73634;47.068;15.426;2024-03-02T03:48:32;96684.31;;;7.16;84.96
83664;BME280;73634;47.068;15.426;2024-03-02T03:50:58;96683.00;;;7.18;84.88
83664;BME280;73634;47.068;15.426;2024-03-02T03:56:16;96684.81;;;7.18;85.12
83664;BME280;73634;47.068;15.426;2024-03-02T03:58:41;96686.34;;;7.19;85.10
83664;BME280;73634;47.068;15.426;2024-03-02T04:01:06;96683.00;;;7.18;84.84
83664;BME280;73634;47.068;15.426;2024-03-02T04:03:32;96679.81;;;7.21;85.47
83664;BME280;73634;47.068;15.426;2024-03-02T04:05:57;96681.25;;;7.09;85.21
83664;BME280;73634;47.068;15.426;2024-03-02T04:08:22;96675.63;;;7.01;86.05
83664;BME280;73634;47.068;15.426;2024-03-02T04:10:48;96683.06;;;7.08;85.47
83664;BME280;73634;47.068;15.426;2024-03-02T04:13:13;96678.47;;;7.00;85.91
83664;BME280;73634;47.068;15.426;2024-03-02T04:15:39;96684.34;;;7.11;86.10
83664;BME280;73634;47.068;15.426;2024-03-02T04:20:11;96689.81;;;7.04;85.62
83664;BME280;73634;47.068;15.426;2024-03-02T04:22:37;96682.13;;;6.99;85.81
83664;BME280;73634;47.068;15.426;2024-03-02T04:25:03;96681.25;;;7.09;85.97
83664;BME280;73634;47.068;15.426;2024-03-02T04:27:30;96680.50;;;7.08;85.81
83664;BME280;73634;47.068;15.426;2024-03-02T04:29:55;96680.56;;;6.98;86.03
83664;BME280;73634;47.068;15.426;2024-03-02T04:32:21;96685.75;;;6.98;86.14
83664;BME280;73634;47.068;15.426;2024-03-02T04:34:46;96689.41;;;6.92;86.07
83664;BME280;73634;47.068;15.426;2024-03-02T04:37:11;96689.31;;;7.02;86.04
83664;BME280;73634;47.068;15.426;2024-03-02T04:39:40;96696.59;;;7.00;85.60
83664;BME280;73634;47.068;15.426;2024-03-02T04:44:42;96704.34;;;7.00;85.46
83664;BME280;73634;47.068;15.426;2024-03-02T04:47:08;96705.34;;;7.04;85.71
83664;BME280;73634;47.068;15.426;2024-03-02T04:49:33;96712.06;;;7.05;85.04
83664;BME280;73634;47.068;15.426;2024-03-02T04:51:59;96716.28;;;6.96;85.83
83664;BME280;73634;47.068;15.426;2024-03-02T04:54:24;96720.69;;;6.90;85.62
83664;BME280;73634;47.068;15.426;2024-03-02T04:56:49;96719.16;;;6.89;85.67
83664;BME280;73634;47.068;15.426;2024-03-02T04:59:18;96715.31;;;6.87;85.59
83664;BME280;73634;47.068;15.426;2024-03-02T05:01:44;96718.97;;;6.81;86.08
83664;BME280;73634;47.068;15.426;2024-03-02T05:04:10;96724.69;;;6.78;85.78
83664;BME280;73634;47.068;15.426;2024-03-02T05:06:38;96720.59;;;6.72;85.70
83664;BME280;73634;47.068;15.426;2024-03-02T05:11:39;96733.50;;;6.77;86.39
83664;BME280;73634;47.068;15.426;2024-03-02T05:14:05;96731.59;;;6.87;85.90
83664;BME280;73634;47.068;15.426;2024-03-02T05:16:35;96725.09;;;6.90;85.93
83664;BME280;73634;47.068;15.426;2024-03-02T05:19:00;96725.56;;;6.97;85.01
83664;BME280;73634;47.068;15.426;2024-03-02T05:21:25;96728.69;;;6.94;84.93
83664;BME280;73634;47.068;15.426;2024-03-02T05:23:51;96726.16;;;6.89;85.07
83664;BME280;73634;47.068;15.426;2024-03-02T05:26:16;96733.88;;;6.94;85.52
83664;BME280;73634;47.068;15.426;2024-03-02T05:28:42;96730.53;;;6.88;84.94
83664;BME280;73634;47.068;15.426;2024-03-02T05:31:10;96734.63;;;6.94;84.82
83664;BME280;73634;47.068;15.426;2024-03-02T05:36:13;96739.94;;;6.79;85.25
83664;BME280;73634;47.068;15.426;2024-03-02T05:38:38;96735.97;;;6.53;86.34
83664;BME280;73634;47.068;15.426;2024-03-02T05:41:04;96740.13;;;6.44;87.11
83664;BME280;73634;47.068;15.426;2024-03-02T05:43:30;96740.06;;;6.59;86.20
83664;BME280;73634;47.068;15.426;2024-03-02T05:45:55;96739.50;;;6.67;86.05
83664;BME280;73634;47.068;15.426;2024-03-02T05:48:21;96740.31;;;6.57;86.54
83664;BME280;73634;47.068;15.426;2024-03-02T05:50:46;96742.31;;;6.71;86.49
83664;BME280;73634;47.068;15.426;2024-03-02T05:53:11;96745.13;;;6.74;86.09
83664;BME280;73634;47.068;15.426;2024-03-02T05:55:40;96746.94;;;6.74;86.28
83664;BME280;73634;47.068;15.426;2024-03-02T06:00:23;96738.16;;;6.75;85.56
83664;BME280;73634;47.068;15.426;2024-03-02T06:02:49;96750.34;;;6.69;86.08
83664;BME280;73634;47.068;15.426;2024-03-02T06:05:15;96741.19;;;6.82;85.87
83664;BME280;73634;47.068;15.426;2024-03-02T06:07:41;96745.25;;;6.93;85.01
83664;BME280;73634;47.068;15.426;2024-03-02T06:10:06;96752.50;;;6.91;84.68
83664;BME280;73634;47.068;15.426;2024-03-02T06:12:34;96750.94;;;6.95;84.74
83664;BME280;73634;47.068;15.426;2024-03-02T06:14:59;96752.47;;;6.96;85.31
83664;BME280;73634;47.068;15.426;2024-03-02T06:17:25;96750.94;;;6.95;85.27
83664;BME280;73634;47.068;15.426;2024-03-02T06:19:51;96752.50;;;6.91;84.93
83664;BME280;73634;47.068;15.426;2024-03-02T06:23:34;96765.59;;;6.65;86.05
83664;BME280;73634;47.068;15.426;2024-03-02T06:26:00;96766.31;;;6.76;86.67
83664;BME280;73634;47.068;15.426;2024-03-02T06:28:26;96769.03;;;6.95;85.90
83664;BME280;73634;47.068;15.426;2024-03-02T06:30:52;96775.66;;;7.11;85.03
83664;BME280;73634;47.068;15.426;2024-03-02T06:33:17;96777.88;;;7.23;84.49
83664;BME280;73634;47.068;15.426;2024-03-02T06:35:42;96774.97;;;7.29;84.37
83664;BME280;73634;47.068;15.426;2024-03-02T06:38:08;96775.25;;;7.28;83.85
83664;BME280;73634;47.068;15.426;2024-03-02T06:40:33;96775.28;;;7.23;83.48
83664;BME280;73634;47.068;15.426;2024-03-02T06:42:59;96775.00;;;7.24;84.03
83664;BME280;73634;47.068;15.426;2024-03-02T06:48:31;96784.69;;;7.43;83.04
83664;BME280;73634;47.068;15.426;2024-03-02T06:50:56;96773.09;;;7.64;82.31
83664;BME280;73634;47.068;15.426;2024-03-02T06:53:26;96768.81;;;7.78;81.18
83664;BME280;73634;47.068;15.426;2024-03-02T06:55:52;96773.59;;;7.95;80.83
83664;BME280;73634;47.068;15.426;2024-03-02T06:58:17;96770.75;;;8.15;79.70
83664;BME280;73634;47.068;15.426;2024-03-02T07:00:43;96769.28;;;8.33;78.58
83664;BME280;73634;47.068;15.426;2024-03-02T07:03:13;96765.38;;;8.54;78.05
83664;BME280;73634;47.068;15.426;2024-03-02T07:05:38;96766.75;;;8.47;77.78
83664;BME280;73634;47.068;15.426;2024-03-02T07:08:07;96765.66;;;8.72;76.55
83664;BME280;73634;47.068;15.426;2024-03-02T07:10:44;96759.63;;;8.76;76.50
83664;BME280;73634;47.068;15.426;2024-03-02T07:13:13;96753.44;;;9.69;74.32
83664;BME280;73634;47.068;15.426;2024-03-02T07:18:25;96749.72;;;10.89;68.82
83664;BME280;73634;47.068;15.426;2024-03-02T07:20:51;96739.81;;;11.13;66.83
83664;BME280;73634;47.068;15.426;2024-03-02T07:23:19;96749.56;;;12.00;64.34
83664;BME280;73634;47.068;15.426;2024-03-02T07:25:45;96752.38;;;12.21;62.99
83664;BME280;73634;47.068;15.426;2024-03-02T07:28:11;96743.84;;;12.90;61.53
83664;BME280;73634;47.068;15.426;2024-03-02T07:30:36;96746.28;;;13.21;60.14
83664;BME280;73634;47.068;15.426;2024-03-02T07:33:04;96741.03;;;14.14;57.89
83664;BME280;73634;47.068;15.426;2024-03-02T07:35:29;96742.34;;;14.29;56.68
83664;BME280;73634;47.068;15.426;2024-03-02T07:37:57;96741.97;;;14.39;55.71
83664;BME280;73634;47.068;15.426;2024-03-02T07:40:22;96742.53;;;14.74;54.11
83664;BME280;73634;47.068;15.426;2024-03-02T07:44:37;96748.25;;;15.21;52.44
83664;BME280;73634;47.068;15.426;2024-03-02T07:47:06;96739.16;;;15.07;53.04
83664;BME280;73634;47.068;15.426;2024-03-02T07:49:32;96738.66;;;16.19;50.14
83664;BME280;73634;47.068;15.426;2024-03-02T07:52:00;96742.88;;;17.00;47.27
83664;BME280;73634;47.068;15.426;2024-03-02T07:54:26;96745.25;;;17.49;45.33
83664;BME280;73634;47.068;15.426;2024-03-02T07:56:51;96735.31;;;18.95;41.36
83664;BME280;73634;47.068;15.426;2024-03-02T07:59:17;96739.56;;;19.87;40.16
83664;BME280;73634;47.068;15.426;2024-03-02T08:01:42;96740.47;;;20.81;38.06
83664;BME280;73634;47.068;15.426;2024-03-02T08:04:08;96736.53;;;20.12;38.42
83664;BME280;73634;47.068;15.426;2024-03-02T08:08:50;96754.78;;;14.61;52.24
83664;BME280;73634;47.068;15.426;2024-03-02T08:11:15;96752.31;;;14.98;52.63
83664;BME280;73634;47.068;15.426;2024-03-02T08:13:40;96738.78;;;15.74;50.17
83664;BME280;73634;47.068;15.426;2024-03-02T08:16:06;96739.16;;;15.52;50.38
83664;BME280;73634;47.068;15.426;2024-03-02T08:18:34;96744.75;;;15.62;50.58
83664;BME280;73634;47.068;15.426;2024-03-02T08:21:00;96749.66;;;14.65;52.78
83664;BME280;73634;47.068;15.426;2024-03-02T08:23:25;96739.16;;;15.52;50.16
83664;BME280;73634;47.068;15.426;2024-03-02T08:25:51;96742.91;;;15.99;50.01
83664;BME280;73634;47.068;15.426;2024-03-02T08:28:16;96743.44;;;15.11;51.42
83664;BME280;73634;47.068;15.426;2024-03-02T08:33:33;96740.78;;;14.78;53.17
83664;BME280;73634;47.068;15.426;2024-03-02T08:35:59;96733.66;;;15.90;50.67
83664;BME280;73634;47.068;15.426;2024-03-02T08:38:25;96737.63;;;13.93;54.97
83664;BME280;73634;47.068;15.426;2024-03-02T08:40:51;96741.41;;;15.98;50.88
83664;BME280;73634;47.068;15.426;2024-03-02T08:43:17;96737.97;;;16.47;48.35
83664;BME280;73634;47.068;15.426;2024-03-02T08:45:43;96736.69;;;16.28;47.95
83664;BME280;73634;47.068;15.426;2024-03-02T08:48:09;96745.75;;;14.50;52.37
83664;BME280;73634;47.068;15.426;2024-03-02T08:50:35;96742.19;;;12.77;58.76
83664;BME280;73634;47.068;15.426;2024-03-02T08:53:00;96729.97;;;14.80;54.37
83664;BME280;73634;47.068;15.426;2024-03-02T08:57:44;96728.38;;;15.65;50.00
83664;BME280;73634;47.068;15.426;2024-03-02T09:00:10;96736.69;;;15.22;51.91
83664;BME280;73634;47.068;15.426;2024-03-02T09:02:38;96731.88;;;15.24;51.56
83664;BME280;73634;47.068;15.426;2024-03-02T09:05:04;96740.00;;;12.87;58.61
83664;BME280;73634;47.068;15.426;2024-03-02T09:07:30;96745.50;;;13.20;58.16
83664;BME280;73634;47.068;15.426;2024-03-02T09:09:55;96733.88;;;12.57;59.92
83664;BME280;73634;47.068;15.426;2024-03-02T09:12:21;96726.38;;;13.92;56.48
83664;BME280;73634;47.068;15.426;2024-03-02T09:14:46;96729.22;;;14.38;55.53
83664;BME280;73634;47.068;15.426;2024-03-02T09:17:12;96727.00;;;14.69;54.41
83664;BME280;73634;47.068;15.426;2024-03-02T09:19:39;96729.59;;;16.17;50.33
83664;BME280;73634;47.068;15.426;2024-03-02T09:24:10;96733.56;;;14.54;54.56
83664;BME280;73634;47.068;15.426;2024-03-02T09:26:36;96744.91;;;13.06;58.36
83664;BME280;73634;47.068;15.426;2024-03-02T09:29:01;96745.09;;;12.66;60.43
83664;BME280;73634;47.068;15.426;2024-03-02T09:31:26;96743.69;;;12.52;60.42
83664;BME280;73634;47.068;15.426;2024-03-02T09:33:52;96744.13;;;11.80;64.58
83664;BME280;73634;47.068;15.426;2024-03-02T09:36:21;96751.66;;;12.90;60.66
83664;BME280;73634;47.068;15.426;2024-03-02T09:38:47;96741.50;;;15.32;53.79
83664;BME280;73634;47.068;15.426;2024-03-02T09:41:14;96744.44;;;14.65;54.99
83664;BME280;73634;47.068;15.426;2024-03-02T09:43:40;96743.97;;;13.28;58.14
83664;BME280;73634;47.068;15.426;2024-03-02T09:48:38;96750.91;;;12.98;60.66
83664;BME280;73634;47.068;15.426;2024-03-02T09:51:04;96738.00;;;12.93;59.87
83664;BME280;73634;47.068;15.426;2024-03-02T09:53:31;96747.00;;;12.18;62.11
83664;BME280;73634;47.068;15.426;2024-03-02T09:56:01;96746.03;;;11.96;62.96
83664;BME280;73634;47.068;15.426;2024-03-02T09:58:26;96749.34;;;12.37;62.31
83664;BME280;73634;47.068;15.426;2024-03-02T10:00:52;96739.69;;;12.89;59.59
83664;BME280;73634;47.068;15.426;2024-03-02T10:03:19;96738.25;;;12.14;61.81
83664;BME280;73634;47.068;15.426;2024-03-02T10:05:44;96735.34;;;13.45;58.48
83664;BME280;73634;47.068;15.426;2024-03-02T10:08:10;96732.75;;;15.16;53.34
83664;BME280;73634;47.068;15.426;2024-03-02T10:10:38;96739.16;;;15.07;53.08
83664;BME280;73634;47.068;15.426;2024-03-02T10:15:35;96753.09;;;14.57;53.64
83664;BME280;73634;47.068;15.426;2024-03-02T10:18:03;96738.16;;;15.44;51.69
83664;BME280;73634;47.068;15.426;2024-03-02T10:20:28;96730.94;;;17.94;45.11
83664;BME280;73634;47.068;15.426;2024-03-02T10:23:15;96745.34;;;16.05;48.97
83664;BME280;73634;47.068;15.426;2024-03-02T10:25:43;96735.41;;;17.62;44.95
83664;BME280;73634;47.068;15.426;2024-03-02T10:28:09;96738.84;;;16.91;46.69
83664;BME280;73634;47.068;15.426;2024-03-02T10:30:35;96728.88;;;18.92;42.36
83664;BME280;73634;47.068;15.426;2024-03-02T10:33:01;96726.28;;;19.15;40.98
83664;BME280;73634;47.068;15.426;2024-03-02T10:35:27;96721.19;;;20.47;37.72
83664;BME280;73634;47.068;15.426;2024-03-02T10:40:48;96725.66;;;21.88;35.43
83664;BME280;73634;47.068;15.426;2024-03-02T10:43:14;96717.13;;;21.61;35.49
83664;BME280;73634;47.068;15.426;2024-03-02T10:45:40;96717.63;;;21.77;35.31
83664;BME280;73634;47.068;15.426;2024-03-02T10:48:06;96705.47;;;23.14;32.98
83664;BME280;73634;47.068;15.426;2024-03-02T10:50:32;96697.38;;;25.37;28.44
83664;BME280;73634;47.068;15.426;2024-03-02T10:52:58;96700.50;;;25.76;28.19
83664;BME280;73634;47.068;15.426;2024-03-02T10:55:23;96704.22;;;25.89;27.85
83664;BME280;73634;47.068;15.426;2024-03-02T10:57:54;96699.25;;;25.91;27.84
83664;BME280;73634;47.068;15.426;2024-03-02T11:00:24;96695.91;;;25.25;28.38
83664;BME280;73634;47.068;15.426;2024-03-02T11:05:49;96677.38;;;24.23;29.83
83664;BME280;73634;47.068;15.426;2024-03-02T11:08:18;96684.03;;;24.78;28.49
83664;BME280;73634;47.068;15.426;2024-03-02T11:10:57;96694.50;;;20.89;34.45
83664;BME280;73634;47.068;15.426;2024-03-02T11:13:32;96676.22;;;22.89;31.40
83664;BME280;73634;47.068;15.426;2024-03-02T11:16:20;96674.28;;;25.19;27.64
83664;BME280;73634;47.068;15.426;2024-03-02T11:18:51;96669.94;;;27.44;24.34
83664;BME280;73634;47.068;15.426;2024-03-02T11:21:17;96675.91;;;22.15;31.63
83664;BME280;73634;47.068;15.426;2024-03-02T11:23:43;96678.22;;;20.24;36.75
83664;BME280;73634;47.068;15.426;2024-03-02T11:26:22;96666.31;;;22.76;31.80
83664;BME280;73634;47.068;15.426;2024-03-02T11:33:10;96661.25;;;21.73;33.20
83664;BME280;73634;47.068;15.426;2024-03-02T11:35:44;96648.25;;;23.67;30.84
83664;BME280;73634;47.068;15.426;2024-03-02T11:38:12;96648.97;;;23.24;30.89
83664;BME280;73634;47.068;15.426;2024-03-02T11:40:41;96650.38;;;22.61;31.95
83664;BME280;73634;47.068;15.426;2024-03-02T11:43:06;96651.53;;;21.00;34.94
83664;BME280;73634;47.068;15.426;2024-03-02T11:45:33;96648.94;;;22.92;30.94
83664;BME280;73634;47.068;15.426;2024-03-02T11:47:59;96648.19;;;22.92;32.18
83664;BME280;73634;47.068;15.426;2024-03-02T11:50:58;96646.88;;;18.20;40.26
83664;BME280;73634;47.068;15.426;2024-03-02T11:55:52;96648.34;;;18.56;39.73
83664;BME280;73634;47.068;15.426;2024-03-02T11:58:20;96641.59;;;19.92;37.90
83664;BME280;73634;47.068;15.426;2024-03-02T12:00:46;96637.31;;;20.41;36.34
83664;BME280;73634;47.068;15.426;2024-03-02T12:03:13;96640.03;;;21.18;33.73
83664;BME280;73634;47.068;15.426;2024-03-02T12:05:38;96629.41;;;21.62;34.28
83664;BME280;73634;47.068;15.426;2024-03-02T12:08:06;96630.41;;;23.42;30.54
83664;BME280;73634;47.068;15.426;2024-03-02T12:10:32;96629.81;;;21.68;32.29
83664;BME280;73634;47.068;15.426;2024-03-02T12:13:02;96621.28;;;21.92;32.09
83664;BME280;73634;47.068;15.426;2024-03-02T12:15:30;96630.81;;;21.05;34.74
83664;BME280;73634;47.068;15.426;2024-03-02T12:20:04;96612.22;;;22.01;32.56
83664;BME280;73634;47.068;15.426;2024-03-02T12:22:30;96618.41;;;21.57;32.82
83664;BME280;73634;47.068;15.426;2024-03-02T12:24:56;96620.97;;;21.46;32.98
83664;BME280;73634;47.068;15.426;2024-03-02T12:27:21;96627.22;;;19.63;37.24
83664;BME280;73634;47.068;15.426;2024-03-02T12:29:48;96612.59;;;21.95;33.29
83664;BME280;73634;47.068;15.426;2024-03-02T12:32:14;96620.06;;;18.53;38.31
83664;BME280;73634;47.068;15.426;2024-03-02T12:34:39;96609.97;;;20.59;35.23
83664;BME280;73634;47.068;15.426;2024-03-02T12:37:05;96606.53;;;21.95;32.74
83664;BME280;73634;47.068;15.426;2024-03-02T12:39:30;96618.00;;;18.24;39.41
83664;BME280;73634;47.068;15.426;2024-03-02T12:45:13;96605.38;;;22.93;31.78
83664;BME280;73634;47.068;15.426;2024-03-02T12:47:40;96603.81;;;21.81;32.85
83664;BME280;73634;47.068;15.426;2024-03-02T12:50:06;96603.75;;;20.11;36.76
83664;BME280;73634;47.068;15.426;2024-03-02T12:52:32;96606.31;;;18.83;38.83
83664;BME280;73634;47.068;15.426;2024-03-02T12:55:02;96603.72;;;18.25;40.63
83664;BME280;73634;47.068;15.426;2024-03-02T12:57:30;96606.72;;;16.90;43.42
83664;BME280;73634;47.068;15.426;2024-03-02T12:59:59;96601.66;;;18.15;41.65
83664;BME280;73634;47.068;15.426;2024-03-02T13:02:29;96596.22;;;17.88;41.67
83664;BME280;73634;47.068;15.426;2024-03-02T13:04:56;96606.66;;;16.31;45.14
83664;BME280;73634;47.068;15.426;2024-03-02T13:09:26;96605.06;;;14.80;49.88
83664;BME280;73634;47.068;15.426;2024-03-02T13:11:52;96602.94;;;14.61;50.59
83664;BME280;73634;47.068;15.426;2024-03-02T13:14:21;96598.34;;;15.04;49.32
83664;BME280;73634;47.068;15.426;2024-03-02T13:16:47;96600.34;;;15.43;48.26
83664;BME280;73634;47.068;15.426;2024-03-02T13:19:14;96602.56;;;14.51;51.30
83664;BME280;73634;47.068;15.426;2024-03-02T13:21:40;96595.78;;;14.71;51.12
83664;BME280;73634;47.068;15.426;2024-03-02T13:24:05;96597.03;;;15.34;49.90
83664;BME280;73634;47.068;15.426;2024-03-02T13:26:31;96597.59;;;15.15;50.44
83664;BME280;73634;47.068;15.426;2024-03-02T13:28:56;96600.50;;;14.77;51.01
83664;BME280;73634;47.068;15.426;2024-03-02T13:32:37;96609.75;;;14.87;51.26
83664;BME280;73634;47.068;15.426;2024-03-02T13:35:03;96604.69;;;14.37;52.41
83664;BME280;73634;47.068;15.426;2024-03-02T13:37:31;96602.94;;;14.41;52.79
83664;BME280;73634;47.068;15.426;2024-03-02T13:39:57;96606.25;;;14.83;51.50
83664;BME280;73634;47.068;15.426;2024-03-02T13:42:23;96606.97;;;15.28;50.26
83664;BME280;73634;47.068;15.426;2024-03-02T13:45:07;96610.16;;;13.81;54.16
83664;BME280;73634;47.068;15.426;2024-03-02T13:47:36;96611.66;;;14.32;53.36
83664;BME280;73634;47.068;15.426;2024-03-02T13:50:01;96611.09;;;14.93;51.45
83664;BME280;73634;47.068;15.426;2024-03-02T13:52:30;96603.16;;;15.26;50.76
83664;BME280;73634;47.068;15.426;2024-03-02T13:57:04;96610.47;;;14.00;52.95
83664;BME280;73634;47.068;15.426;2024-03-02T13:59:29;96609.16;;;13.94;53.62
83664;BME280;73634;47.068;15.426;2024-03-02T14:01:58;96612.28;;;14.09;52.99
83664;BME280;73634;47.068;15.426;2024-03-02T14:04:24;96613.94;;;13.92;53.51
83664;BME280;73634;47.068;15.426;2024-03-02T14:06:49;96616.09;;;14.11;53.29
83664;BME280;73634;47.068;15.426;2024-03-02T14:09:14;96619.78;;;13.68;54.56
83664;BME280;73634;47.068;15.426;2024-03-02T14:11:40;96614.41;;;13.35;56.41
83664;BME280;73634;47.068;15.426;2024-03-02T14:14:05;96619.56;;;13.53;56.05
83664;BME280;73634;47.068;15.426;2024-03-02T14:16:34;96612.97;;;13.76;55.11